KONA/ONA METAR and TAF weather

Enter ICAO airport designator
Station Type Date Time Source
KONA METAR 2021/09/23 17:35 UTC NOAA

KONA 231735Z AUTO 00000KT 10SM CLR 19/12 A3008 RMK AO2


Station Type Date Time Source
KONA Decoded METAR 2021/09/23 17:35 UTC NOAA

Winona, Winona Municipal Airport-Max Conrad Field, MN, United States (KONA) 44-05N 091-42W
Sep 23, 2021 - 01:35 PM EDT / 2021.09.23 1735 UTC
Wind: Calm:0
Visibility: 10 mile(s):0
Sky conditions: clear
Temperature: 66 F (19 C)
Dew Point: 53 F (12 C)
Relative Humidity: 63%
Pressure (altimeter): 30.08 in. Hg (1018 hPa)
ob: KONA 231735Z AUTO 00000KT 10SM CLR 19/12 A3008 RMK AO2
cycle: 17

Station Type Date Time Source
KONA TAF UTC NOAA

Error!

Example: see airport list